Time;durP1;ratioP1;P1;durP2;ratioP2;P2;SDS_P1;SDS_P2;PMS_P1;PMS_P2;Temp;Humidity;BMP_temperature;BMP_pressure;BME280_temperature;BME280_humidity;BME280_pressure;Samples;Min_cycle;Max_cycle;Signal;HPM_P1;HPM_P2
2021/10/04 00:00:31;;;;;;;2.58;1.40;;;24.00;53.00;;;;;;4965017;28;20042;-52
2021/10/04 00:02:57;;;;;;;2.42;1.48;;;24.00;53.00;;;;;;4972886;28;20182;-59
2021/10/04 00:05:22;;;;;;;2.55;1.40;;;24.00;53.10;;;;;;4974416;28;20035;-53
2021/10/04 00:07:48;;;;;;;2.10;1.38;;;24.00;53.00;;;;;;4969117;28;20144;-58
2021/10/04 00:10:17;;;;;;;2.20;1.30;;;24.00;53.10;;;;;;4973487;28;20582;-58
2021/10/04 00:12:43;;;;;;;2.10;1.35;;;24.00;53.10;;;;;;4971085;28;20063;-58
2021/10/04 00:15:12;;;;;;;2.40;1.33;;;24.00;53.10;;;;;;4975387;28;20041;-58
2021/10/04 00:17:38;;;;;;;2.33;1.23;;;24.00;53.10;;;;;;4981310;28;20057;-59
2021/10/04 00:20:07;;;;;;;1.88;1.20;;;24.00;53.10;;;;;;4962021;28;20655;-56
2021/10/04 00:22:33;;;;;;;2.10;1.40;;;23.90;53.10;;;;;;4966258;28;20471;-57
2021/10/04 00:24:58;;;;;;;2.25;1.40;;;23.90;53.10;;;;;;4973186;28;20129;-52
2021/10/04 00:27:24;;;;;;;2.20;1.30;;;23.90;53.10;;;;;;4970873;28;20676;-54
2021/10/04 00:29:50;;;;;;;2.22;1.33;;;23.90;53.20;;;;;;4966638;28;20019;-57
2021/10/04 00:32:15;;;;;;;2.28;1.20;;;23.90;53.20;;;;;;4968842;28;20190;-58
2021/10/04 00:34:41;;;;;;;2.88;1.25;;;23.90;53.20;;;;;;4963144;28;20360;-55
2021/10/04 00:37:07;;;;;;;1.80;1.30;;;23.90;53.20;;;;;;4965443;28;20038;-51
2021/10/04 00:39:32;;;;;;;2.42;1.23;;;23.90;53.20;;;;;;4973325;28;20045;-51
2021/10/04 00:41:59;;;;;;;2.05;1.20;;;23.90;53.20;;;;;;4970255;28;20051;-53
2021/10/04 00:44:25;;;;;;;3.33;1.30;;;23.90;53.20;;;;;;4971032;28;20361;-58
2021/10/04 00:46:51;;;;;;;2.10;1.20;;;23.90;53.20;;;;;;4965791;28;20117;-58
2021/10/04 00:49:17;;;;;;;1.67;1.17;;;23.80;53.20;;;;;;4971793;28;20912;-55
2021/10/04 00:51:42;;;;;;;2.08;1.25;;;23.80;53.20;;;;;;4976710;28;20041;-57
2021/10/04 00:54:09;;;;;;;1.85;1.20;;;23.80;53.20;;;;;;4965845;28;20382;-50
2021/10/04 00:56:34;;;;;;;1.58;1.17;;;23.80;53.20;;;;;;4958387;28;20073;-58
2021/10/04 00:59:00;;;;;;;2.13;1.40;;;23.80;53.20;;;;;;4969811;28;20594;-51
2021/10/04 01:01:28;;;;;;;1.92;1.33;;;23.80;53.30;;;;;;4966948;28;20108;-59
2021/10/04 01:03:59;;;;;;;1.58;1.10;;;23.80;53.30;;;;;;4983657;28;20050;-51
2021/10/04 01:06:26;;;;;;;2.30;1.30;;;23.70;53.30;;;;;;4968322;28;20455;-58
2021/10/04 01:08:51;;;;;;;2.00;1.25;;;23.80;53.30;;;;;;4973844;28;20038;-57
2021/10/04 01:11:18;;;;;;;1.88;1.20;;;23.70;53.30;;;;;;4954743;28;20751;-56
2021/10/04 01:13:44;;;;;;;2.38;1.30;;;23.80;53.40;;;;;;4968222;28;20165;-58
2021/10/04 01:16:09;;;;;;;2.10;1.30;;;23.70;53.30;;;;;;4969040;28;20429;-58
2021/10/04 01:18:35;;;;;;;1.85;1.10;;;23.70;53.40;;;;;;4978884;28;20070;-58
2021/10/04 01:21:02;;;;;;;3.03;1.40;;;23.70;53.40;;;;;;4973337;28;20045;-58
2021/10/04 01:23:28;;;;;;;1.90;1.20;;;23.70;53.40;;;;;;4975008;28;20031;-60
2021/10/04 01:25:55;;;;;;;2.20;1.20;;;23.70;53.40;;;;;;4967785;28;20450;-49
2021/10/04 01:28:21;;;;;;;1.92;1.20;;;23.70;53.40;;;;;;4974694;28;20046;-58
2021/10/04 01:30:47;;;;;;;1.33;1.00;;;23.70;53.40;;;;;;4974365;28;20030;-58
2021/10/04 01:33:12;;;;;;;2.22;1.35;;;23.70;53.40;;;;;;4981681;28;20027;-55
2021/10/04 01:35:38;;;;;;;1.90;1.20;;;23.70;53.40;;;;;;4974458;28;20104;-58
2021/10/04 01:38:04;;;;;;;1.77;1.25;;;23.70;53.40;;;;;;4968987;28;20305;-52
2021/10/04 01:40:30;;;;;;;1.50;1.15;;;23.70;53.50;;;;;;4974780;28;20062;-55
2021/10/04 01:42:56;;;;;;;2.00;1.30;;;23.60;53.40;;;;;;4969209;28;20098;-59
2021/10/04 01:45:23;;;;;;;1.70;1.10;;;23.60;53.40;;;;;;4969969;28;20082;-59
2021/10/04 01:47:50;;;;;;;1.63;1.13;;;23.60;53.40;;;;;;4969166;28;20031;-59
2021/10/04 01:50:16;;;;;;;1.70;1.05;;;23.60;53.40;;;;;;4969562;28;20042;-56
2021/10/04 01:52:42;;;;;;;1.80;1.20;;;23.70;53.50;;;;;;4968154;28;20503;-54
2021/10/04 01:55:09;;;;;;;1.27;1.00;;;23.70;53.50;;;;;;4967015;28;20041;-52
2021/10/04 01:57:35;;;;;;;1.90;1.13;;;23.70;53.40;;;;;;4970924;28;20110;-59
2021/10/04 02:00:03;;;;;;;2.30;1.20;;;23.60;53.40;;;;;;4965949;28;20113;-55
2021/10/04 02:02:31;;;;;;;1.90;1.17;;;23.60;53.40;;;;;;4971672;28;20138;-54
2021/10/04 02:04:57;;;;;;;2.33;1.20;;;23.60;53.50;;;;;;4974905;28;20026;-58
2021/10/04 02:07:22;;;;;;;2.28;1.00;;;23.60;53.40;;;;;;4967497;28;20042;-58
2021/10/04 02:09:48;;;;;;;2.42;1.13;;;23.60;53.50;;;;;;4960308;28;20034;-54
2021/10/04 02:12:15;;;;;;;1.88;1.17;;;23.60;53.50;;;;;;4973357;28;20030;-51
2021/10/04 02:14:41;;;;;;;1.40;1.00;;;23.60;53.50;;;;;;4966821;28;20030;-58
2021/10/04 02:17:06;;;;;;;1.80;1.20;;;23.60;53.50;;;;;;4964627;28;20110;-53
2021/10/04 02:19:32;;;;;;;1.90;1.20;;;23.60;53.50;;;;;;4969095;28;20042;-58
2021/10/04 02:22:00;;;;;;;1.38;1.10;;;23.60;53.50;;;;;;4985925;28;20084;-51
2021/10/04 02:24:27;;;;;;;1.48;1.00;;;23.60;53.50;;;;;;4972078;28;20031;-49
2021/10/04 02:26:53;;;;;;;2.00;1.30;;;23.60;53.50;;;;;;4967237;28;20027;-60
2021/10/04 02:29:19;;;;;;;1.75;1.00;;;23.60;53.50;;;;;;4963034;28;20451;-58
2021/10/04 02:31:44;;;;;;;2.40;1.40;;;23.50;53.50;;;;;;4972558;28;20050;-57
2021/10/04 02:34:10;;;;;;;1.60;1.10;;;23.60;53.50;;;;;;4979296;28;20031;-51
2021/10/04 02:36:36;;;;;;;1.90;1.08;;;23.50;53.50;;;;;;4972985;28;20026;-53
2021/10/04 02:39:03;;;;;;;1.38;1.02;;;23.50;53.50;;;;;;4960983;28;20124;-57
2021/10/04 02:41:29;;;;;;;2.72;1.35;;;23.50;53.60;;;;;;4966679;28;20062;-58
2021/10/04 02:43:54;;;;;;;1.92;1.17;;;23.50;53.50;;;;;;4971048;28;20042;-58
2021/10/04 02:46:21;;;;;;;1.20;1.00;;;23.50;53.50;;;;;;4979309;28;20060;-47
2021/10/04 02:48:46;;;;;;;1.73;1.10;;;23.50;53.50;;;;;;4977570;28;20097;-56
2021/10/04 02:51:12;;;;;;;1.55;1.17;;;23.50;53.50;;;;;;4966681;28;20065;-59
2021/10/04 02:53:38;;;;;;;2.17;1.23;;;23.50;54.10;;;;;;4973655;28;20065;-58
2021/10/04 02:56:04;;;;;;;1.75;1.10;;;23.50;53.50;;;;;;4971822;28;20042;-58
2021/10/04 02:58:30;;;;;;;2.00;1.10;;;23.50;54.00;;;;;;4972124;28;20054;-58
2021/10/04 03:00:56;;;;;;;1.70;1.10;;;23.50;53.50;;;;;;4970684;28;20586;-59
2021/10/04 03:03:22;;;;;;;1.67;1.10;;;23.50;53.60;;;;;;4982995;28;20092;-51
2021/10/04 03:05:48;;;;;;;1.40;1.00;;;23.40;53.50;;;;;;4973617;28;20042;-57
2021/10/04 03:08:13;;;;;;;1.75;1.10;;;23.40;53.50;;;;;;4980963;28;20105;-57
2021/10/04 03:10:39;;;;;;;1.70;1.08;;;23.40;53.50;;;;;;4969324;28;20042;-57
2021/10/04 03:13:05;;;;;;;2.60;1.30;;;23.40;53.50;;;;;;4963630;28;20037;-58
2021/10/04 03:15:31;;;;;;;2.75;1.30;;;23.40;53.50;;;;;;4962279;28;20122;-59
2021/10/04 03:17:57;;;;;;;1.92;1.17;;;23.40;53.50;;;;;;4978655;28;20102;-59
2021/10/04 03:20:23;;;;;;;1.52;1.05;;;23.40;53.50;;;;;;4977450;28;20089;-59
2021/10/04 03:22:49;;;;;;;1.73;1.10;;;23.40;53.50;;;;;;4956762;28;20363;-57
2021/10/04 03:25:15;;;;;;;1.38;0.90;;;23.40;53.50;;;;;;4969973;28;20046;-57
2021/10/04 03:27:43;;;;;;;1.30;1.00;;;23.40;53.50;;;;;;4965885;28;20059;-50
2021/10/04 03:30:09;;;;;;;1.67;1.10;;;23.40;53.60;;;;;;4961580;28;20058;-55
2021/10/04 03:32:36;;;;;;;1.38;1.10;;;23.40;53.50;;;;;;4965456;28;20062;-55
2021/10/04 03:35:02;;;;;;;1.98;1.20;;;23.40;53.60;;;;;;4965519;28;20046;-54
2021/10/04 03:37:28;;;;;;;1.33;1.10;;;23.40;53.60;;;;;;4962139;28;20034;-56
2021/10/04 03:39:54;;;;;;;1.70;1.20;;;23.40;53.60;;;;;;4962014;28;20514;-58
2021/10/04 03:42:19;;;;;;;1.80;1.00;;;23.40;53.60;;;;;;4967346;28;20027;-51
2021/10/04 03:44:45;;;;;;;2.00;1.13;;;23.40;53.60;;;;;;4965974;28;20039;-58
2021/10/04 03:47:10;;;;;;;1.83;1.13;;;23.40;53.60;;;;;;4965424;28;20030;-57
2021/10/04 03:49:36;;;;;;;1.27;1.00;;;23.40;53.60;;;;;;4962492;28;20034;-51
2021/10/04 03:52:02;;;;;;;1.35;0.98;;;23.40;53.60;;;;;;4960486;28;20553;-54
2021/10/04 03:54:28;;;;;;;1.77;1.15;;;23.40;53.60;;;;;;4957840;28;20103;-58
2021/10/04 03:56:54;;;;;;;1.33;1.02;;;23.40;53.60;;;;;;4967867;28;20444;-58
2021/10/04 03:59:19;;;;;;;1.52;1.10;;;23.40;53.60;;;;;;4964602;28;20152;-57
2021/10/04 04:01:45;;;;;;;1.35;0.93;;;23.30;53.60;;;;;;4967278;28;20038;-49
2021/10/04 04:04:10;;;;;;;1.42;0.90;;;23.30;53.60;;;;;;4953488;28;20031;-58
2021/10/04 04:06:36;;;;;;;1.73;1.13;;;23.30;53.60;;;;;;4961880;28;20092;-59
2021/10/04 04:09:02;;;;;;;1.08;0.93;;;23.30;53.60;;;;;;4960714;28;20121;-57
2021/10/04 04:11:28;;;;;;;1.30;1.00;;;23.30;53.60;;;;;;4974165;28;20022;-51
2021/10/04 04:13:53;;;;;;;1.42;1.10;;;23.30;53.60;;;;;;4960596;28;20055;-59
2021/10/04 04:16:19;;;;;;;1.50;1.10;;;23.30;53.70;;;;;;4973519;28;20023;-57
2021/10/04 04:18:45;;;;;;;1.73;1.08;;;23.30;53.70;;;;;;4959344;28;20064;-47
2021/10/04 04:21:11;;;;;;;1.67;1.10;;;23.30;53.70;;;;;;4959546;28;20031;-53
2021/10/04 04:23:36;;;;;;;1.65;1.10;;;23.30;53.70;;;;;;4960289;28;20031;-58
2021/10/04 04:26:02;;;;;;;1.42;0.95;;;23.30;53.70;;;;;;4967074;28;20019;-54
2021/10/04 04:28:27;;;;;;;1.35;0.90;;;23.30;53.70;;;;;;4955542;28;20077;-54
2021/10/04 04:30:53;;;;;;;1.55;1.10;;;23.30;53.70;;;;;;4965029;28;20473;-58
2021/10/04 04:33:19;;;;;;;1.02;0.90;;;23.30;53.70;;;;;;4978139;28;20037;-58
2021/10/04 04:35:44;;;;;;;1.02;0.93;;;23.30;53.70;;;;;;4990005;28;20065;-58
2021/10/04 04:38:10;;;;;;;1.45;1.00;;;23.30;53.70;;;;;;4977441;28;20663;-53
2021/10/04 04:40:36;;;;;;;1.25;0.98;;;23.30;53.70;;;;;;4990395;28;20038;-57
2021/10/04 04:43:01;;;;;;;1.48;1.00;;;23.30;53.70;;;;;;4990797;28;20398;-52
2021/10/04 04:45:27;;;;;;;1.63;1.10;;;23.30;53.70;;;;;;4989823;28;20038;-59
2021/10/04 04:47:53;;;;;;;1.05;0.80;;;23.30;53.70;;;;;;4980277;28;20023;-57
2021/10/04 04:50:19;;;;;;;1.50;0.90;;;23.20;53.70;;;;;;4981930;28;20034;-48
2021/10/04 04:52:45;;;;;;;1.52;1.00;;;23.20;53.70;;;;;;4980807;28;20125;-55
2021/10/04 04:55:11;;;;;;;1.42;1.00;;;23.20;53.80;;;;;;4987797;28;20049;-46
2021/10/04 04:57:37;;;;;;;1.05;0.90;;;23.20;53.80;;;;;;4987215;28;20061;-46
2021/10/04 05:00:08;;;;;;;0.85;0.80;;;23.20;53.80;;;;;;4983425;28;20078;-58
2021/10/04 05:02:36;;;;;;;1.52;0.90;;;23.20;53.80;;;;;;4966094;28;20476;-57
2021/10/04 05:05:05;;;;;;;1.30;1.00;;;23.20;53.80;;;;;;4964229;28;20026;-56
2021/10/04 05:07:31;;;;;;;2.05;0.90;;;23.20;53.80;;;;;;4972881;28;20791;-50
2021/10/04 05:09:56;;;;;;;1.88;1.00;;;23.20;53.80;;;;;;4965422;28;20034;-59
2021/10/04 05:12:22;;;;;;;1.50;0.90;;;23.20;53.80;;;;;;4962011;28;20038;-59
2021/10/04 05:14:47;;;;;;;1.98;1.00;;;23.20;53.80;;;;;;4968213;28;20035;-56
2021/10/04 05:17:13;;;;;;;1.25;1.00;;;23.20;53.80;;;;;;4964207;28;20023;-55
2021/10/04 05:19:38;;;;;;;0.90;0.80;;;23.20;53.80;;;;;;4967142;28;20030;-57
2021/10/04 05:22:04;;;;;;;1.70;0.80;;;23.20;53.80;;;;;;4977976;28;20086;-50
2021/10/04 05:24:30;;;;;;;1.10;0.90;;;23.20;53.80;;;;;;4962329;28;20105;-50
2021/10/04 05:26:56;;;;;;;1.25;0.90;;;23.10;53.80;;;;;;4977998;28;20446;-54
2021/10/04 05:29:26;;;;;;;1.20;0.90;;;23.10;53.80;;;;;;4977458;28;20034;-50
2021/10/04 05:31:52;;;;;;;1.52;0.90;;;23.10;53.80;;;;;;4973811;28;20042;-53
2021/10/04 05:34:17;;;;;;;2.50;0.88;;;23.10;54.20;;;;;;4973703;28;20026;-54
2021/10/04 05:36:44;;;;;;;1.15;0.93;;;23.20;53.80;;;;;;4977930;28;20030;-50
2021/10/04 05:39:09;;;;;;;1.38;0.80;;;23.10;53.70;;;;;;4973756;28;20355;-54
2021/10/04 05:41:35;;;;;;;1.35;0.90;;;23.10;54.20;;;;;;4969454;28;20031;-55
2021/10/04 05:44:01;;;;;;;1.42;0.93;;;23.10;53.80;;;;;;4982193;28;20043;-52
2021/10/04 05:46:27;;;;;;;2.05;1.05;;;23.10;53.80;;;;;;4964314;28;20447;-55
2021/10/04 05:48:53;;;;;;;1.42;1.00;;;23.10;53.80;;;;;;4964826;28;20102;-56
2021/10/04 05:51:20;;;;;;;1.05;0.80;;;23.10;53.80;;;;;;4964041;28;20035;-54
2021/10/04 05:53:46;;;;;;;1.42;0.90;;;23.10;53.80;;;;;;4969404;28;20034;-59
2021/10/04 05:56:11;;;;;;;1.30;0.98;;;23.10;53.80;;;;;;4969467;28;20089;-46
2021/10/04 05:58:37;;;;;;;1.13;0.88;;;23.10;53.80;;;;;;4968598;28;20031;-52
2021/10/04 06:01:03;;;;;;;1.10;0.90;;;23.10;53.80;;;;;;4974327;28;20093;-52
2021/10/04 06:03:29;;;;;;;1.67;0.90;;;23.10;53.80;;;;;;4978278;28;20034;-49
2021/10/04 06:05:54;;;;;;;1.45;0.90;;;23.00;53.80;;;;;;4978517;28;20057;-49
2021/10/04 06:08:20;;;;;;;1.13;0.80;;;23.10;53.80;;;;;;4967890;28;20030;-53
2021/10/04 06:10:45;;;;;;;2.10;0.80;;;23.10;53.90;;;;;;4972185;28;20034;-59
2021/10/04 06:13:11;;;;;;;1.30;0.90;;;23.10;53.90;;;;;;4966907;28;20059;-54
2021/10/04 06:15:37;;;;;;;1.92;0.90;;;23.10;53.90;;;;;;4969602;28;20038;-56
2021/10/04 06:18:02;;;;;;;1.10;0.90;;;23.00;53.90;;;;;;4979939;28;20772;-56
2021/10/04 06:20:28;;;;;;;1.08;0.80;;;23.10;53.90;;;;;;4966298;28;20144;-52
2021/10/04 06:22:54;;;;;;;1.67;0.93;;;23.10;53.80;;;;;;4979972;28;20023;-55
2021/10/04 06:25:20;;;;;;;1.30;0.85;;;23.10;53.80;;;;;;4974927;28;20054;-59
2021/10/04 06:27:48;;;;;;;0.98;0.85;;;23.10;53.70;;;;;;4982618;28;20034;-55
2021/10/04 06:30:14;;;;;;;1.35;0.88;;;23.20;53.80;;;;;;4965030;28;20081;-56
2021/10/04 06:32:40;;;;;;;1.27;0.85;;;23.20;53.70;;;;;;4970142;28;20064;-54
2021/10/04 06:35:07;;;;;;;1.02;0.80;;;23.20;53.60;;;;;;4962451;28;20535;-53
2021/10/04 06:37:32;;;;;;;1.42;0.80;;;23.30;54.10;;;;;;4965663;28;20038;-57
2021/10/04 06:39:58;;;;;;;1.15;0.88;;;23.30;53.50;;;;;;4970234;28;20034;-59
2021/10/04 06:42:24;;;;;;;1.60;1.05;;;23.30;53.50;;;;;;4980853;28;20503;-59
2021/10/04 06:44:51;;;;;;;1.58;1.10;;;23.40;53.60;;;;;;4978717;28;20033;-56
2021/10/04 06:47:17;;;;;;;1.85;1.20;;;23.50;53.50;;;;;;4970957;28;20022;-52
2021/10/04 06:49:42;;;;;;;1.60;1.10;;;23.60;53.30;;;;;;4971939;28;20502;-59
2021/10/04 06:52:08;;;;;;;2.25;1.10;;;23.70;53.10;;;;;;4974847;28;20058;-49
2021/10/04 06:54:34;;;;;;;1.75;1.02;;;23.70;52.90;;;;;;4964246;28;20091;-56
2021/10/04 06:56:59;;;;;;;1.60;1.00;;;23.80;52.70;;;;;;4974321;28;20034;-47
2021/10/04 06:59:25;;;;;;;1.52;1.00;;;23.90;52.60;;;;;;4963150;28;20458;-50
2021/10/04 07:01:51;;;;;;;2.45;1.00;;;23.90;52.50;;;;;;4973558;28;20076;-54
2021/10/04 07:04:16;;;;;;;1.20;1.00;;;24.00;52.40;;;;;;4966895;28;20023;-48
2021/10/04 07:06:42;;;;;;;1.98;0.90;;;24.10;52.30;;;;;;4959836;28;20121;-55
2021/10/04 07:09:08;;;;;;;1.30;0.80;;;24.10;52.10;;;;;;4968698;28;20034;-56
2021/10/04 07:11:33;;;;;;;1.38;0.90;;;24.20;52.00;;;;;;4970290;28;20454;-59
2021/10/04 07:13:59;;;;;;;1.67;0.98;;;24.20;52.00;;;;;;4964412;28;20046;-55
2021/10/04 07:16:25;;;;;;;1.10;0.82;;;24.10;52.00;;;;;;4978800;28;20447;-56
2021/10/04 07:18:50;;;;;;;1.50;0.90;;;24.10;52.00;;;;;;4972319;28;20033;-51
2021/10/04 07:21:16;;;;;;;1.50;0.90;;;24.10;52.10;;;;;;4974810;28;20034;-49
2021/10/04 07:23:44;;;;;;;1.17;0.80;;;24.10;52.00;;;;;;4970401;28;20031;-46
2021/10/04 07:26:10;;;;;;;0.98;0.88;;;24.20;52.00;;;;;;4970237;28;20398;-56
2021/10/04 07:28:36;;;;;;;2.33;0.80;;;24.10;52.00;;;;;;4973233;28;20511;-57
2021/10/04 07:31:02;;;;;;;1.25;0.85;;;24.20;51.90;;;;;;4975722;28;20030;-49
2021/10/04 07:33:28;;;;;;;1.25;0.80;;;24.20;52.00;;;;;;4963973;28;20031;-52
2021/10/04 07:35:55;;;;;;;1.35;0.88;;;24.20;52.00;;;;;;4957348;28;20027;-59
2021/10/04 07:38:22;;;;;;;1.65;0.98;;;24.20;52.00;;;;;;4967621;28;20514;-58
2021/10/04 07:40:48;;;;;;;2.83;0.88;;;24.20;51.90;;;;;;4967579;28;20785;-57
2021/10/04 07:43:14;;;;;;;1.30;0.93;;;24.20;52.10;;;;;;4966789;28;20022;-52
2021/10/04 07:45:40;;;;;;;1.30;0.85;;;24.30;51.90;;;;;;4978552;28;20037;-53
2021/10/04 07:48:06;;;;;;;2.03;0.90;;;24.30;51.80;;;;;;4975396;28;20090;-51
2021/10/04 07:50:32;;;;;;;1.05;0.70;;;24.30;51.80;;;;;;4969530;28;20018;-50
2021/10/04 07:52:58;;;;;;;1.92;0.90;;;24.30;51.80;;;;;;4978812;28;20026;-52
2021/10/04 07:55:23;;;;;;;1.35;0.82;;;24.30;51.70;;;;;;4974454;28;20056;-59
2021/10/04 07:57:49;;;;;;;1.30;0.80;;;24.30;51.70;;;;;;4971691;28;20106;-46
2021/10/04 08:00:18;;;;;;;0.90;0.80;;;24.30;51.70;;;;;;4964194;28;20051;-51
2021/10/04 08:02:43;;;;;;;0.90;0.70;;;24.30;51.60;;;;;;4969001;28;20019;-50
2021/10/04 08:05:10;;;;;;;0.90;0.80;;;24.30;51.60;;;;;;4967828;28;20031;-55
2021/10/04 08:07:36;;;;;;;1.27;0.90;;;24.30;51.60;;;;;;4969825;28;20035;-55
2021/10/04 08:10:03;;;;;;;1.13;0.90;;;24.40;51.60;;;;;;4968915;28;20339;-47
2021/10/04 08:12:29;;;;;;;1.40;0.90;;;24.40;51.60;;;;;;4963379;28;20041;-53
2021/10/04 08:14:55;;;;;;;1.25;0.82;;;24.40;51.50;;;;;;4972384;28;20030;-49
2021/10/04 08:17:22;;;;;;;0.80;0.80;;;24.40;51.50;;;;;;4983162;28;20023;-51
2021/10/04 08:19:48;;;;;;;0.70;0.70;;;24.40;51.50;;;;;;4961894;28;20311;-53
2021/10/04 08:22:14;;;;;;;1.10;0.95;;;24.40;51.40;;;;;;4965437;28;20125;-55
2021/10/04 08:24:40;;;;;;;1.48;0.95;;;24.40;51.40;;;;;;4958006;28;20057;-49
2021/10/04 08:27:06;;;;;;;1.10;0.90;;;24.50;51.50;;;;;;4963949;28;20029;-52
2021/10/04 08:29:32;;;;;;;1.52;0.90;;;24.50;51.50;;;;;;4969680;28;20029;-55
2021/10/04 08:31:57;;;;;;;1.58;0.80;;;24.50;51.60;;;;;;4958687;28;20451;-58
2021/10/04 08:34:23;;;;;;;0.70;0.70;;;24.50;51.60;;;;;;4976659;28;20027;-54
2021/10/04 08:36:49;;;;;;;1.35;0.90;;;24.50;51.50;;;;;;4961021;28;20031;-48
2021/10/04 08:39:14;;;;;;;0.82;0.73;;;24.50;51.50;;;;;;4970071;28;20092;-57
2021/10/04 08:41:40;;;;;;;1.30;0.82;;;24.50;51.50;;;;;;4966749;28;20027;-57
2021/10/04 08:44:11;;;;;;;1.35;0.70;;;24.50;51.50;;;;;;4973652;28;20117;-47
2021/10/04 08:46:38;;;;;;;0.82;0.73;;;24.50;51.40;;;;;;4969275;28;20510;-54
2021/10/04 08:49:05;;;;;;;1.23;0.80;;;24.50;51.50;;;;;;4974392;28;20054;-54
2021/10/04 08:51:31;;;;;;;0.60;0.60;;;24.50;51.60;;;;;;4966023;28;20488;-53
2021/10/04 08:53:57;;;;;;;1.42;0.70;;;24.50;51.60;;;;;;4972398;28;20109;-58
2021/10/04 08:56:23;;;;;;;1.13;0.70;;;24.50;51.60;;;;;;4970023;28;20035;-54
2021/10/04 08:58:48;;;;;;;1.10;0.80;;;24.50;51.50;;;;;;4966638;28;20103;-57
2021/10/04 09:01:20;;;;;;;1.52;0.90;;;24.50;51.50;;;;;;4966103;28;20054;-53
2021/10/04 09:03:48;;;;;;;1.20;0.90;;;24.60;51.50;;;;;;4978246;28;20062;-56
2021/10/04 09:06:47;;;;;;;1.30;0.90;;;24.60;51.50;;;;;;4971586;28;20599;-59
2021/10/04 09:09:14;;;;;;;1.17;0.80;;;24.60;51.40;;;;;;4987556;28;20050;-51
2021/10/04 09:11:43;;;;;;;2.47;1.08;;;24.60;51.30;;;;;;4977689;28;20062;-55
2021/10/04 09:14:27;;;;;;;1.83;0.98;;;24.60;51.30;;;;;;4968884;28;20034;-56
2021/10/04 09:17:06;;;;;;;1.40;0.90;;;24.60;51.30;;;;;;4972192;28;20031;-47
2021/10/04 09:19:37;;;;;;;1.25;0.88;;;24.60;51.20;;;;;;4971093;28;20026;-59
2021/10/04 09:22:23;;;;;;;1.10;0.88;;;24.60;51.20;;;;;;4976356;28;20027;-57
2021/10/04 09:24:57;;;;;;;1.20;0.80;;;24.60;51.20;;;;;;4963040;28;20043;-54
2021/10/04 09:27:24;;;;;;;1.20;0.70;;;24.60;51.20;;;;;;4967945;28;20135;-50
2021/10/04 09:29:51;;;;;;;1.88;0.90;;;24.60;51.20;;;;;;4979073;28;20036;-50
2021/10/04 09:32:25;;;;;;;1.30;0.80;;;24.60;51.20;;;;;;4967881;28;20058;-47
2021/10/04 09:35:09;;;;;;;1.25;0.70;;;24.60;51.20;;;;;;4966517;28;20019;-47
2021/10/04 09:37:34;;;;;;;0.77;0.70;;;24.60;51.20;;;;;;4965036;28;20035;-52
2021/10/04 09:40:02;;;;;;;1.48;0.80;;;24.60;51.20;;;;;;4967258;28;20041;-49
2021/10/04 09:42:36;;;;;;;1.02;0.70;;;24.60;51.20;;;;;;4982907;28;20019;-58
2021/10/04 09:45:03;;;;;;;1.00;0.70;;;24.60;51.20;;;;;;4969308;28;20030;-55
2021/10/04 09:47:39;;;;;;;1.05;0.70;;;24.60;51.20;;;;;;4977534;28;20309;-58
2021/10/04 09:50:13;;;;;;;0.80;0.68;;;24.60;51.20;;;;;;4972734;28;20427;-59
2021/10/04 09:52:49;;;;;;;1.17;0.70;;;24.60;51.20;;;;;;4974945;28;20035;-55
2021/10/04 09:55:28;;;;;;;1.15;0.75;;;24.60;51.20;;;;;;4969041;28;20038;-54
2021/10/04 09:58:14;;;;;;;2.35;0.80;;;24.60;51.30;;;;;;4966407;28;20027;-56
2021/10/04 10:00:48;;;;;;;1.33;0.70;;;24.60;51.30;;;;;;4974336;28;20135;-50
2021/10/04 10:03:16;;;;;;;1.27;0.80;;;24.60;51.10;;;;;;4979507;28;20058;-56
2021/10/04 10:05:46;;;;;;;0.90;0.80;;;24.60;50.90;;;;;;4967375;28;20087;-53
2021/10/04 10:08:13;;;;;;;1.15;0.70;;;24.60;50.70;;;;;;4973863;28;20537;-50
2021/10/04 10:10:43;;;;;;;1.05;0.70;;;24.60;50.80;;;;;;4964403;28;20031;-49
2021/10/04 10:13:10;;;;;;;1.98;0.90;;;24.60;50.70;;;;;;4966698;28;20066;-54
2021/10/04 10:15:37;;;;;;;1.60;0.70;;;24.60;50.80;;;;;;4975331;28;20081;-58
2021/10/04 10:18:24;;;;;;;2.00;0.80;;;24.60;50.80;;;;;;4974301;28;20114;-51
2021/10/04 10:21:02;;;;;;;1.50;0.85;;;24.60;51.00;;;;;;4974755;28;20046;-51
2021/10/04 10:23:46;;;;;;;1.23;0.70;;;24.60;51.00;;;;;;4972812;28;20022;-50
2021/10/04 10:26:41;;;;;;;1.08;0.80;;;24.60;51.00;;;;;;4979157;28;20026;-59
2021/10/04 10:29:13;;;;;;;1.00;0.70;;;24.60;51.00;;;;;;4984766;28;20031;-53
2021/10/04 10:31:51;;;;;;;0.90;0.75;;;24.60;51.00;;;;;;4983117;28;20066;-56
2021/10/04 10:34:29;;;;;;;1.08;0.80;;;24.60;51.00;;;;;;4963935;28;20034;-51
2021/10/04 10:37:08;;;;;;;0.73;0.70;;;24.60;50.90;;;;;;4970659;28;20466;-54
2021/10/04 10:39:42;;;;;;;1.45;0.90;;;24.60;50.90;;;;;;4975062;28;20033;-55
2021/10/04 10:42:17;;;;;;;1.75;0.90;;;24.60;51.00;;;;;;4985782;28;20023;-52
2021/10/04 10:44:59;;;;;;;1.10;0.90;;;24.60;51.00;;;;;;4973568;28;20424;-59
2021/10/04 10:47:36;;;;;;;2.30;0.90;;;24.60;50.90;;;;;;4966716;28;20554;-50
2021/10/04 10:50:11;;;;;;;0.70;0.70;;;24.60;51.10;;;;;;4969944;28;20036;-51
2021/10/04 10:53:00;;;;;;;1.42;0.70;;;24.60;51.10;;;;;;4976870;28;20028;-56
2021/10/04 10:55:29;;;;;;;0.88;0.60;;;24.60;51.10;;;;;;4965662;28;20027;-50
2021/10/04 10:58:02;;;;;;;1.88;0.70;;;24.70;51.20;;;;;;4974769;28;20078;-55
2021/10/04 11:00:31;;;;;;;1.30;0.80;;;24.60;51.20;;;;;;4961821;28;20042;-61
2021/10/04 11:03:00;;;;;;;2.20;0.77;;;24.60;51.20;;;;;;4977557;28;20015;-55
2021/10/04 11:08:05;;;;;;;1.38;0.80;;;24.70;51.20;;;;;;4974814;28;20049;-56
2021/10/04 11:10:32;;;;;;;1.02;0.75;;;24.70;51.10;;;;;;4973533;28;20030;-56
2021/10/04 11:13:09;;;;;;;0.73;0.70;;;24.70;51.10;;;;;;4989486;28;20022;-57
2021/10/04 11:15:37;;;;;;;1.40;0.80;;;24.70;51.10;;;;;;4973736;28;20039;-53
2021/10/04 11:18:04;;;;;;;1.40;0.70;;;24.70;51.10;;;;;;4967051;28;20032;-52
2021/10/04 11:20:30;;;;;;;1.00;0.80;;;24.70;51.10;;;;;;4990509;28;20098;-51
2021/10/04 11:23:08;;;;;;;1.25;0.75;;;24.70;51.10;;;;;;4968655;28;20160;-50
2021/10/04 11:25:55;;;;;;;1.63;0.80;;;24.70;51.10;;;;;;4970511;28;20058;-57
2021/10/04 11:28:30;;;;;;;1.00;0.63;;;24.70;51.10;;;;;;4982953;28;20309;-58
2021/10/04 11:31:00;;;;;;;2.63;0.90;;;24.70;51.10;;;;;;4976160;28;20120;-53
2021/10/04 11:33:28;;;;;;;1.58;0.80;;;24.70;51.10;;;;;;4983116;28;20349;-52
2021/10/04 11:35:59;;;;;;;1.55;0.70;;;24.70;51.10;;;;;;4978551;28;20619;-55
2021/10/04 11:38:28;;;;;;;1.10;0.80;;;24.70;51.10;;;;;;4967356;28;20023;-52
2021/10/04 11:40:54;;;;;;;0.73;0.60;;;24.70;51.10;;;;;;4977860;28;20038;-50
2021/10/04 11:43:20;;;;;;;0.82;0.60;;;24.70;51.10;;;;;;4970453;28;20403;-55
2021/10/04 11:45:47;;;;;;;1.38;0.70;;;24.70;51.10;;;;;;4972444;28;20031;-59
2021/10/04 11:48:35;;;;;;;1.92;0.80;;;24.70;51.10;;;;;;4971964;28;20540;-50
2021/10/04 11:51:04;;;;;;;1.23;0.80;;;24.80;51.10;;;;;;4965480;28;20451;-55
2021/10/04 11:53:30;;;;;;;1.10;0.68;;;24.80;51.10;;;;;;4964315;28;20162;-53
2021/10/04 11:56:07;;;;;;;1.67;0.85;;;24.80;51.10;;;;;;4965646;28;20031;-59
2021/10/04 11:58:34;;;;;;;1.52;0.70;;;24.80;51.20;;;;;;4967109;28;20100;-54
2021/10/04 12:01:01;;;;;;;1.80;1.08;;;24.80;51.10;;;;;;4969951;28;20038;-54
2021/10/04 12:03:29;;;;;;;1.27;0.70;;;24.80;51.20;;;;;;4979670;28;20031;-54
2021/10/04 12:05:56;;;;;;;1.13;0.82;;;24.80;51.20;;;;;;4978281;28;20049;-57
2021/10/04 12:08:23;;;;;;;2.00;0.70;;;24.80;51.20;;;;;;4973239;28;20029;-53
2021/10/04 12:10:58;;;;;;;1.20;0.70;;;24.80;51.20;;;;;;4970274;28;20039;-57
2021/10/04 12:13:32;;;;;;;1.30;0.80;;;24.80;51.20;;;;;;4977446;28;20058;-57
2021/10/04 12:16:04;;;;;;;1.58;0.90;;;24.80;51.20;;;;;;4967331;28;20027;-51
2021/10/04 12:18:32;;;;;;;1.17;0.70;;;24.80;51.20;;;;;;4981099;28;20035;-48
2021/10/04 12:21:20;;;;;;;1.02;0.68;;;24.80;51.20;;;;;;4963483;28;20095;-60
2021/10/04 12:24:10;;;;;;;1.65;0.80;;;24.80;51.20;;;;;;4964129;28;20079;-51
2021/10/04 12:26:59;;;;;;;1.15;0.80;;;24.80;51.10;;;;;;4969084;28;20388;-45
2021/10/04 12:29:29;;;;;;;2.13;0.68;;;24.80;51.10;;;;;;4981762;28;20042;-54
2021/10/04 12:31:55;;;;;;;1.08;0.70;;;24.80;51.10;;;;;;4970395;28;20043;-55
2021/10/04 12:34:24;;;;;;;1.20;0.65;;;24.80;51.10;;;;;;4971196;28;20748;-55
2021/10/04 12:36:50;;;;;;;1.52;0.80;;;24.80;51.10;;;;;;4968917;28;20157;-57
2021/10/04 12:39:16;;;;;;;2.17;0.80;;;24.80;51.10;;;;;;4972737;28;20031;-57
2021/10/04 12:41:44;;;;;;;2.60;0.77;;;24.80;51.10;;;;;;4974914;28;20046;-49
2021/10/04 12:44:14;;;;;;;1.03;0.63;;;24.80;51.10;;;;;;4984046;28;20037;-51
2021/10/04 12:47:00;;;;;;;0.93;0.70;;;24.80;51.10;;;;;;4980119;28;20285;-59
2021/10/04 12:49:25;;;;;;;1.17;0.85;;;24.80;51.10;;;;;;4962825;28;20122;-59
2021/10/04 12:51:51;;;;;;;2.17;0.70;;;24.80;51.10;;;;;;4970875;28;20082;-50
2021/10/04 12:54:16;;;;;;;2.03;0.85;;;24.80;51.10;;;;;;4967128;28;20050;-51